createdAt,value
2023-09-08T00:00:37.571Z,100.00
2023-09-08T00:02:00.597Z,98.11
2023-09-08T00:03:24.666Z,97.14
2023-09-08T00:04:47.122Z,95.91
2023-09-08T00:06:10.430Z,98.26
2023-09-08T00:07:32.531Z,96.61
2023-09-08T00:08:55.921Z,99.45
2023-09-08T00:10:17.961Z,100.00
2023-09-08T00:11:42.271Z,98.98
2023-09-08T00:13:04.722Z,99.95
2023-09-08T00:14:29.327Z,100.00
2023-09-08T00:15:51.475Z,100.00
2023-09-08T00:17:14.442Z,100.00
2023-09-08T00:18:37.178Z,100.00
2023-09-08T00:20:00.385Z,100.00
2023-09-08T00:21:22.646Z,100.00
2023-09-08T00:22:46.307Z,100.00
2023-09-08T00:24:08.704Z,100.00
2023-09-08T00:25:32.027Z,100.00
2023-09-08T00:26:54.321Z,100.00
2023-09-08T00:28:18.246Z,100.00
2023-09-08T00:29:41.934Z,100.00
2023-09-08T00:31:09.009Z,100.00
2023-09-08T00:32:31.754Z,100.00
2023-09-08T00:33:56.723Z,100.00
2023-09-08T00:35:19.653Z,100.00
2023-09-08T00:36:43.238Z,100.00
2023-09-08T00:38:06.065Z,100.00
2023-09-08T00:39:31.554Z,100.00
2023-09-08T00:40:53.958Z,100.00
2023-09-08T00:42:17.219Z,100.00
2023-09-08T00:43:39.673Z,100.00
2023-09-08T00:45:05.003Z,100.00
2023-09-08T00:46:29.131Z,100.00
2023-09-08T00:47:53.451Z,100.00
2023-09-08T00:49:19.772Z,100.00
2023-09-08T00:50:43.921Z,100.00
2023-09-08T00:52:07.161Z,100.00
2023-09-08T00:53:32.048Z,100.00
2023-09-08T00:54:54.547Z,100.00
2023-09-08T00:56:19.255Z,100.00
2023-09-08T00:57:42.203Z,100.00
2023-09-08T00:59:06.995Z,100.00
2023-09-08T01:00:33.076Z,100.00
2023-09-08T01:01:57.122Z,100.00
2023-09-08T01:03:22.272Z,100.00
2023-09-08T01:04:48.586Z,100.00
2023-09-08T01:06:11.718Z,100.00
2023-09-08T01:07:36.319Z,100.00
2023-09-08T01:08:59.027Z,100.00
2023-09-08T01:10:24.014Z,100.00
2023-09-08T01:11:46.887Z,100.00
2023-09-08T01:13:12.621Z,100.00
2023-09-08T01:14:36.041Z,100.00
2023-09-08T01:16:05.662Z,100.00
2023-09-08T01:17:28.938Z,100.00
2023-09-08T01:18:57.048Z,100.00
2023-09-08T01:20:23.309Z,100.00
2023-09-08T01:22:16.096Z,100.00
2023-09-08T01:23:57.945Z,100.00
2023-09-08T01:25:23.404Z,100.00
2023-09-08T01:26:47.225Z,100.00
2023-09-08T01:28:12.159Z,100.00
2023-09-08T01:29:46.275Z,100.00
2023-09-08T01:31:11.568Z,100.00
2023-09-08T01:32:36.422Z,100.00
2023-09-08T01:34:07.789Z,100.00
2023-09-08T01:35:32.413Z,100.00
2023-09-08T01:36:56.553Z,100.00
2023-09-08T01:38:18.771Z,100.00
2023-09-08T01:39:42.316Z,100.00
2023-09-08T01:41:05.886Z,100.00
2023-09-08T01:42:29.406Z,100.00
2023-09-08T01:43:54.199Z,100.00
2023-09-08T01:46:58.209Z,100.00
2023-09-08T01:48:22.231Z,98.30
2023-09-08T01:49:44.630Z,97.64
2023-09-08T01:51:07.709Z,98.36
2023-09-08T01:52:30.140Z,97.77
2023-09-08T01:53:57.660Z,96.47
2023-09-08T01:55:19.877Z,95.79
2023-09-08T01:56:44.876Z,95.63
2023-09-08T01:58:07.447Z,96.48
2023-09-08T01:59:31.530Z,97.05
2023-09-08T02:01:07.173Z,98.14
2023-09-08T02:02:29.484Z,99.36
2023-09-08T02:03:53.433Z,99.69
2023-09-08T02:06:40.055Z,100.00
2023-09-08T02:08:02.993Z,100.00
2023-09-08T02:09:33.288Z,100.00
2023-09-08T02:10:55.795Z,100.00
2023-09-08T02:12:25.131Z,100.00
2023-09-08T02:13:47.580Z,100.00
2023-09-08T02:15:12.589Z,100.00
2023-09-08T02:16:34.973Z,100.00
2023-09-08T02:18:07.811Z,100.00
2023-09-08T02:19:30.499Z,100.00
2023-09-08T02:20:55.422Z,100.00
2023-09-08T02:22:19.806Z,100.00
2023-09-08T02:23:44.940Z,100.00
2023-09-08T02:25:08.297Z,100.00
2023-09-08T02:26:34.537Z,100.00
2023-09-08T02:27:58.364Z,100.00
2023-09-08T02:29:22.523Z,100.00
2023-09-08T02:30:46.818Z,100.00
2023-09-08T02:32:18.544Z,100.00
2023-09-08T02:33:41.140Z,100.00
2023-09-08T02:35:04.880Z,100.00
2023-09-08T02:36:28.043Z,98.96
2023-09-08T02:37:51.289Z,98.33
2023-09-08T02:39:14.781Z,97.99
2023-09-08T02:40:38.544Z,100.00
2023-09-08T02:42:00.751Z,100.00
2023-09-08T02:43:29.832Z,100.00
2023-09-08T02:44:53.534Z,100.00
2023-09-08T02:46:17.871Z,100.00
2023-09-08T02:47:40.384Z,100.00
2023-09-08T02:49:05.821Z,100.00
2023-09-08T02:50:28.275Z,100.00
2023-09-08T02:51:51.858Z,100.00
2023-09-08T02:54:50.896Z,99.13
2023-09-08T02:56:13.710Z,98.44
2023-09-08T02:57:37.260Z,97.96
2023-09-08T02:59:01.079Z,98.14
2023-09-08T03:00:24.991Z,97.93
2023-09-08T03:01:49.443Z,98.25
2023-09-08T03:03:13.069Z,100.00
2023-09-08T03:04:35.383Z,100.00
2023-09-08T03:06:04.407Z,100.00
2023-09-08T03:07:26.492Z,100.00
2023-09-08T03:08:49.551Z,100.00
2023-09-08T03:10:13.728Z,100.00
2023-09-08T03:11:38.733Z,100.00
2023-09-08T03:13:01.083Z,100.00
2023-09-08T03:14:25.984Z,100.00
2023-09-08T03:15:50.016Z,100.00
2023-09-08T03:17:17.536Z,100.00
2023-09-08T03:18:39.730Z,100.00
2023-09-08T03:20:02.833Z,100.00
2023-09-08T03:21:25.846Z,100.00
2023-09-08T03:22:47.947Z,100.00
2023-09-08T03:24:10.979Z,100.00
2023-09-08T03:25:33.006Z,100.00
2023-09-08T03:26:56.326Z,100.00
2023-09-08T03:28:18.692Z,100.00
2023-09-08T03:29:43.443Z,100.00
2023-09-08T03:31:06.637Z,100.00
2023-09-08T03:32:30.191Z,100.00
2023-09-08T03:33:52.423Z,100.00
2023-09-08T03:35:17.514Z,100.00
2023-09-08T03:36:40.691Z,100.00
2023-09-08T03:38:02.817Z,100.00
2023-09-08T03:39:25.939Z,100.00
2023-09-08T03:40:48.042Z,100.00
2023-09-08T03:42:11.008Z,100.00
2023-09-08T03:43:33.421Z,100.00
2023-09-08T03:44:58.242Z,100.00
2023-09-08T03:46:20.293Z,100.00
2023-09-08T03:47:43.493Z,100.00
2023-09-08T03:49:06.490Z,100.00
2023-09-08T03:50:28.613Z,100.00
2023-09-08T03:51:51.636Z,100.00
2023-09-08T03:53:13.988Z,100.00
2023-09-08T03:54:38.307Z,100.00
2023-09-08T03:56:00.461Z,100.00
2023-09-08T03:57:23.600Z,100.00
2023-09-08T03:58:45.770Z,100.00
2023-09-08T04:00:12.919Z,100.00
2023-09-08T04:01:34.973Z,100.00
2023-09-08T04:02:58.319Z,100.00
2023-09-08T04:04:21.419Z,100.00
2023-09-08T04:05:44.478Z,100.00
2023-09-08T04:07:06.536Z,100.00
2023-09-08T04:08:29.936Z,100.00
2023-09-08T04:09:52.042Z,100.00
2023-09-08T04:11:15.013Z,100.00
2023-09-08T04:12:37.189Z,100.00
2023-09-08T04:14:00.321Z,100.00
2023-09-08T04:15:23.926Z,100.00
2023-09-08T04:16:46.875Z,100.00
2023-09-08T04:18:09.240Z,100.00
2023-09-08T04:19:32.276Z,100.00
2023-09-08T04:20:54.288Z,100.00
2023-09-08T04:22:17.376Z,100.00
2023-09-08T04:23:39.307Z,100.00
2023-09-08T04:25:02.729Z,100.00
2023-09-08T04:26:24.654Z,100.00
2023-09-08T04:27:49.179Z,100.00
2023-09-08T04:29:11.210Z,100.00
2023-09-08T04:30:35.630Z,100.00
2023-09-08T04:31:57.925Z,100.00
2023-09-08T04:33:21.250Z,100.00
2023-09-08T04:34:43.750Z,100.00
2023-09-08T04:36:06.965Z,100.00
2023-09-08T04:37:29.115Z,100.00
2023-09-08T04:38:52.266Z,100.00
2023-09-08T04:40:14.285Z,100.00
2023-09-08T04:41:37.323Z,100.00
2023-09-08T04:42:59.356Z,100.00
2023-09-08T04:44:22.299Z,100.00
2023-09-08T04:45:46.558Z,100.00
2023-09-08T04:47:09.511Z,100.00
2023-09-08T04:48:31.843Z,100.00
2023-09-08T04:49:54.928Z,100.00
2023-09-08T04:51:16.871Z,100.00
2023-09-08T04:52:39.860Z,100.00
2023-09-08T04:54:01.840Z,99.54
2023-09-08T04:55:25.631Z,100.00
2023-09-08T04:56:47.705Z,100.00
2023-09-08T04:58:10.857Z,100.00
2023-09-08T04:59:33.708Z,100.00
2023-09-08T05:00:59.079Z,100.00
2023-09-08T05:02:21.229Z,100.00
2023-09-08T05:03:44.446Z,100.00
2023-09-08T05:05:07.212Z,100.00
2023-09-08T05:06:30.243Z,100.00
2023-09-08T05:07:54.494Z,100.00
2023-09-08T05:09:17.997Z,100.00
2023-09-08T05:10:40.004Z,100.00
2023-09-08T05:12:02.974Z,100.00
2023-09-08T05:13:31.296Z,100.00
2023-09-08T05:14:57.996Z,98.63
2023-09-08T05:16:37.277Z,97.29
2023-09-08T05:18:01.855Z,96.59
2023-09-08T05:19:24.086Z,96.29
2023-09-08T05:20:49.771Z,95.89
2023-09-08T05:22:11.704Z,98.12
2023-09-08T05:23:34.794Z,97.96
2023-09-08T05:24:57.568Z,98.99
2023-09-08T05:26:20.590Z,99.50
2023-09-08T05:27:42.611Z,100.00
2023-09-08T05:29:05.920Z,100.00
2023-09-08T05:30:28.268Z,100.00
2023-09-08T05:31:56.292Z,100.00
2023-09-08T05:33:18.487Z,100.00
2023-09-08T05:34:41.788Z,100.00
2023-09-08T05:36:03.866Z,100.00
2023-09-08T05:37:26.895Z,100.00
2023-09-08T05:38:48.798Z,100.00
2023-09-08T05:40:12.259Z,100.00
2023-09-08T05:41:35.032Z,100.00
2023-09-08T05:42:58.148Z,100.00
2023-09-08T05:44:20.172Z,100.00
2023-09-08T05:45:43.196Z,100.00
2023-09-08T05:47:06.710Z,100.00
2023-09-08T05:48:29.875Z,100.00
2023-09-08T06:56:48.064Z,89.43
2023-09-08T06:58:10.529Z,89.68
2023-09-08T06:59:35.350Z,90.06
2023-09-08T07:01:10.955Z,89.88
2023-09-08T07:02:43.482Z,89.32
2023-09-08T07:04:18.356Z,88.36
2023-09-08T07:05:43.392Z,87.50
2023-09-08T07:07:41.434Z,86.95
2023-09-08T07:09:34.722Z,87.86
2023-09-08T07:11:21.772Z,89.21
2023-09-08T07:13:16.394Z,90.83
2023-09-08T07:14:41.390Z,90.69
2023-09-08T07:16:14.060Z,90.26
2023-09-08T07:17:39.137Z,89.34
2023-09-08T07:23:39.365Z,85.80
2023-09-08T07:25:02.598Z,86.35
2023-09-08T07:26:35.138Z,86.45
2023-09-08T07:28:04.732Z,87.59
2023-09-08T07:29:28.423Z,89.04
2023-09-08T07:30:51.813Z,87.92
2023-09-08T07:32:15.429Z,86.64
2023-09-08T07:35:43.415Z,87.08
2023-09-08T07:37:05.647Z,86.80
2023-09-08T07:38:29.224Z,86.17
2023-09-08T07:39:52.855Z,83.40
2023-09-08T07:41:20.638Z,83.16
2023-09-08T07:42:45.669Z,84.73
2023-09-08T07:44:09.738Z,84.23
2023-09-08T07:45:34.699Z,83.35
2023-09-08T07:46:58.754Z,82.95
2023-09-08T07:48:23.054Z,81.84
2023-09-08T07:49:47.997Z,80.52
2023-09-08T07:51:15.586Z,80.87
2023-09-08T07:52:39.117Z,82.35
2023-09-08T07:54:04.604Z,83.50
2023-09-08T07:55:30.093Z,83.06
2023-09-08T07:56:52.658Z,81.59
2023-09-08T07:58:16.448Z,80.58
2023-09-08T07:59:38.606Z,80.06
2023-09-08T08:01:03.268Z,80.28
2023-09-08T08:02:27.385Z,78.59
2023-09-08T08:03:52.038Z,78.71
2023-09-08T08:05:14.547Z,77.89
2023-09-08T08:06:40.378Z,78.54
2023-09-08T08:08:02.845Z,77.35
2023-09-08T08:09:27.100Z,77.29
2023-09-08T08:10:51.733Z,78.20
2023-09-08T08:12:15.996Z,78.42
2023-09-08T08:13:40.470Z,77.67
2023-09-08T08:15:04.000Z,76.85
2023-09-08T08:16:26.574Z,76.87
2023-09-08T08:17:50.167Z,76.42
2023-09-08T08:19:12.512Z,76.25
2023-09-08T08:20:41.536Z,76.44
2023-09-08T08:22:05.104Z,75.29
2023-09-08T08:23:28.496Z,76.91
2023-09-08T08:24:50.623Z,77.45
2023-09-08T08:26:16.814Z,77.48
2023-09-08T08:27:38.990Z,77.12
2023-09-08T08:29:02.751Z,76.69
2023-09-08T08:30:25.209Z,77.17
2023-09-08T08:31:48.407Z,76.93
2023-09-08T08:33:12.779Z,76.41
2023-09-08T08:34:35.001Z,76.49
2023-09-08T08:36:01.616Z,75.95
2023-09-08T08:37:26.644Z,75.78
2023-09-08T08:38:51.410Z,78.03
2023-09-08T08:40:14.870Z,76.10
2023-09-08T08:41:40.646Z,75.95
2023-09-08T08:43:04.950Z,75.39
2023-09-08T08:44:27.584Z,75.60
2023-09-08T08:45:52.635Z,75.45
2023-09-08T08:47:17.340Z,73.39
2023-09-08T08:48:42.597Z,73.97
2023-09-08T08:50:06.608Z,73.67
2023-09-08T08:51:32.585Z,74.00
2023-09-08T08:52:57.065Z,73.97
2023-09-08T08:54:20.398Z,72.72
2023-09-08T08:55:45.139Z,71.41
2023-09-08T08:57:09.097Z,72.83
2023-09-08T08:58:33.572Z,72.33
2023-09-08T08:59:57.479Z,71.99
2023-09-08T09:01:21.053Z,70.59
2023-09-08T09:02:47.605Z,70.35
2023-09-08T09:04:17.728Z,70.80
2023-09-08T09:05:41.074Z,71.06
2023-09-08T09:07:05.173Z,70.48
2023-09-08T09:08:30.944Z,69.46
2023-09-08T09:09:56.098Z,69.33
2023-09-08T09:11:22.167Z,70.40
2023-09-08T09:12:44.676Z,69.68
2023-09-08T09:14:07.786Z,68.50
2023-09-08T09:15:31.041Z,67.98
2023-09-08T09:16:58.777Z,66.86
2023-09-08T09:18:21.234Z,66.66
2023-09-08T09:19:44.424Z,66.62
2023-09-08T09:21:06.880Z,65.81
2023-09-08T09:22:40.436Z,65.77
2023-09-08T09:24:04.209Z,65.11
2023-09-08T09:25:30.589Z,64.13
2023-09-08T09:26:54.235Z,64.88
2023-09-08T09:28:17.650Z,64.88
2023-09-08T09:29:47.517Z,64.34
2023-09-08T09:31:12.482Z,62.77
2023-09-08T09:32:36.479Z,63.38
2023-09-08T09:34:07.692Z,63.14
2023-09-08T09:35:43.985Z,63.29
2023-09-08T09:37:07.057Z,63.19
2023-09-08T09:38:29.615Z,64.69
2023-09-08T09:39:56.362Z,64.82
2023-09-08T09:41:18.587Z,64.65
2023-09-08T09:42:52.061Z,63.67
2023-09-08T09:44:14.197Z,62.88
2023-09-08T09:45:39.496Z,62.14
2023-09-08T09:47:02.306Z,62.05
2023-09-08T09:48:26.038Z,63.32
2023-09-08T09:49:52.098Z,62.44
2023-09-08T09:51:19.688Z,62.94
2023-09-08T09:52:41.758Z,61.66
2023-09-08T09:54:09.051Z,61.22
2023-09-08T09:55:33.277Z,60.84
2023-09-08T09:56:56.568Z,60.61
2023-09-08T09:58:22.022Z,59.67
2023-09-08T09:59:49.570Z,58.87
2023-09-08T10:01:15.474Z,60.19
2023-09-08T10:02:39.418Z,58.91
2023-09-08T10:04:02.353Z,58.72
2023-09-08T10:05:26.575Z,59.00
2023-09-08T10:06:49.365Z,57.87
2023-09-08T10:08:12.547Z,57.75
2023-09-08T10:09:34.726Z,58.10
2023-09-08T10:11:01.623Z,56.68
2023-09-08T10:12:26.386Z,56.11
2023-09-08T10:13:53.868Z,56.84
2023-09-08T10:15:21.972Z,56.75
2023-09-08T10:16:51.012Z,56.75
2023-09-08T10:18:20.413Z,56.20
2023-09-08T10:19:47.007Z,56.24
2023-09-08T10:21:11.520Z,57.33
2023-09-08T10:22:35.050Z,56.76
2023-09-08T10:24:06.644Z,56.96
2023-09-08T10:25:39.789Z,56.46
2023-09-08T10:27:09.072Z,56.54
2023-09-08T10:28:34.369Z,56.42
2023-09-08T10:29:57.438Z,56.69
2023-09-08T10:31:22.181Z,56.15
2023-09-08T10:32:44.801Z,56.04
2023-09-08T10:34:09.073Z,55.53
2023-09-08T10:35:31.799Z,55.30
2023-09-08T10:36:55.232Z,55.58
2023-09-08T10:38:25.101Z,54.34
2023-09-08T10:39:49.941Z,52.39
2023-09-08T10:41:33.185Z,48.05
2023-09-08T10:43:10.869Z,46.39
2023-09-08T10:44:33.914Z,44.84
2023-09-08T10:45:59.410Z,47.19
2023-09-08T10:47:24.502Z,47.19
2023-09-08T10:48:47.777Z,46.46
2023-09-08T10:50:20.555Z,44.58
2023-09-08T10:51:44.468Z,43.02
2023-09-08T10:53:15.074Z,42.63
2023-09-08T10:54:43.096Z,42.37
2023-09-08T10:56:17.890Z,42.75
2023-09-08T10:59:40.165Z,42.91
2023-09-08T11:01:02.915Z,42.64
2023-09-08T11:02:41.871Z,41.06
2023-09-08T11:04:20.345Z,39.90
2023-09-08T11:05:44.585Z,40.45
2023-09-08T11:07:14.432Z,43.09
2023-09-08T11:08:39.911Z,40.06
2023-09-08T11:10:04.332Z,38.97
2023-09-08T11:11:26.779Z,39.67
2023-09-08T11:12:54.052Z,39.54
2023-09-08T11:14:18.166Z,37.47
2023-09-08T11:15:44.689Z,37.85
2023-09-08T11:17:12.092Z,38.29
2023-09-08T11:18:37.442Z,37.69
2023-09-08T11:20:00.198Z,38.75
2023-09-08T11:21:23.389Z,41.33
2023-09-08T11:22:47.662Z,40.75
2023-09-08T11:24:16.263Z,38.89
2023-09-08T11:25:38.522Z,38.21
2023-09-08T11:27:02.029Z,37.57
2023-09-08T11:28:25.934Z,37.23
2023-09-08T11:29:52.456Z,35.76
2023-09-08T11:31:16.132Z,37.29
2023-09-08T11:32:39.858Z,37.16
2023-09-08T11:34:03.743Z,38.65
2023-09-08T11:35:34.446Z,40.03
2023-09-08T11:36:58.944Z,41.04
2023-09-08T11:38:27.497Z,39.16
2023-09-08T11:39:49.677Z,38.14
2023-09-08T11:41:14.917Z,37.47
2023-09-08T11:42:45.586Z,35.92
2023-09-08T11:44:09.811Z,35.21
2023-09-08T11:45:34.940Z,35.63
2023-09-08T11:47:00.897Z,36.19
2023-09-08T11:48:25.084Z,35.61
2023-09-08T11:49:49.472Z,33.92
2023-09-08T11:51:11.832Z,33.64
2023-09-08T11:52:46.642Z,34.22
2023-09-08T11:54:31.982Z,34.48
2023-09-08T11:55:59.366Z,34.84
2023-09-08T11:57:23.966Z,35.63
2023-09-08T11:58:48.162Z,36.88
2023-09-08T12:00:17.004Z,38.86
2023-09-08T12:01:43.293Z,38.10
2023-09-08T12:03:14.429Z,37.60
2023-09-08T12:04:39.880Z,34.79
2023-09-08T12:06:03.814Z,33.51
2023-09-08T12:07:26.960Z,34.87
2023-09-08T12:08:49.785Z,34.72
2023-09-08T12:10:15.412Z,35.02
2023-09-08T12:11:42.535Z,36.88
2023-09-08T12:13:06.878Z,39.96
2023-09-08T12:14:30.026Z,39.21
2023-09-08T12:15:54.020Z,38.83
2023-09-08T12:17:18.637Z,39.23
2023-09-08T12:18:46.537Z,37.34
2023-09-08T12:20:16.262Z,37.14
2023-09-08T12:21:58.024Z,38.16
2023-09-08T12:23:23.018Z,38.97
2023-09-08T12:24:50.263Z,37.66
2023-09-08T12:26:13.662Z,37.08
2023-09-08T12:27:37.730Z,35.48
2023-09-08T12:29:01.418Z,35.70
2023-09-08T12:30:30.761Z,34.93
2023-09-08T12:31:54.372Z,34.97
2023-09-08T12:33:22.172Z,35.55
2023-09-08T12:34:47.182Z,35.48
2023-09-08T12:36:15.477Z,34.76
2023-09-08T12:37:40.323Z,34.58
2023-09-08T12:39:06.421Z,35.12
2023-09-08T12:40:29.218Z,34.74
2023-09-08T12:41:55.695Z,34.32
2023-09-08T12:43:27.057Z,34.03
2023-09-08T12:44:51.244Z,32.86
2023-09-08T12:46:16.522Z,31.75
2023-09-08T12:47:40.000Z,32.18
2023-09-08T12:49:01.990Z,31.57
2023-09-08T12:50:27.283Z,32.88
2023-09-08T12:51:49.585Z,34.44
2023-09-08T12:53:13.359Z,36.11
2023-09-08T12:54:35.489Z,36.91
2023-09-08T12:55:58.832Z,35.75
2023-09-08T12:57:21.115Z,34.64
2023-09-08T12:58:44.165Z,34.21
2023-09-08T13:00:08.498Z,33.98
2023-09-08T13:01:31.756Z,34.09
2023-09-08T13:02:53.907Z,33.69
2023-09-08T13:04:16.997Z,36.57
2023-09-08T13:05:40.955Z,36.71
2023-09-08T13:07:06.012Z,35.15
2023-09-08T13:08:29.673Z,34.82
2023-09-08T13:09:52.137Z,35.33
2023-09-08T13:11:16.181Z,33.89
2023-09-08T13:12:44.966Z,33.63
2023-09-08T13:14:10.365Z,33.87
2023-09-08T13:15:33.395Z,34.37
2023-09-08T13:16:56.771Z,34.76
2023-09-08T13:18:20.084Z,34.82
2023-09-08T13:19:42.178Z,35.21
2023-09-08T13:21:07.544Z,35.26
2023-09-08T13:22:30.693Z,35.07
2023-09-08T13:23:52.945Z,35.50
2023-09-08T13:25:34.331Z,33.68
2023-09-08T13:26:57.064Z,31.81
2023-09-08T13:28:20.163Z,34.47
2023-09-08T13:29:42.251Z,33.54
2023-09-08T13:31:05.630Z,35.04
2023-09-08T13:32:30.029Z,34.37
2023-09-08T13:33:53.452Z,36.63
2023-09-08T13:35:15.445Z,37.32
2023-09-08T13:36:40.119Z,38.24
2023-09-08T13:38:05.044Z,38.39
2023-09-08T13:39:28.284Z,36.56
2023-09-08T13:40:50.930Z,35.78
2023-09-08T13:42:14.385Z,34.35
2023-09-08T13:43:37.153Z,34.04
2023-09-08T13:45:00.908Z,34.36
2023-09-08T13:46:24.020Z,38.67
2023-09-08T13:47:48.015Z,37.19
2023-09-08T13:49:12.685Z,36.05
2023-09-08T13:50:37.647Z,38.74
2023-09-08T13:52:09.208Z,40.06
2023-09-08T13:53:42.660Z,38.93
2023-09-08T13:55:34.907Z,38.16
2023-09-08T13:57:08.882Z,35.90
2023-09-08T13:58:49.410Z,34.74
2023-09-08T14:00:17.289Z,34.28
2023-09-08T14:01:41.950Z,35.08
2023-09-08T14:03:13.298Z,35.88
2023-09-08T14:04:43.688Z,38.18
2023-09-08T14:06:29.086Z,36.10
2023-09-08T14:07:58.345Z,34.02
2023-09-08T14:11:04.632Z,33.65
2023-09-08T14:12:34.699Z,35.33
2023-09-08T14:13:58.526Z,34.00
2023-09-08T14:15:22.043Z,33.61
2023-09-08T14:16:44.075Z,33.53
2023-09-08T14:18:08.092Z,33.28
2023-09-08T14:19:30.401Z,33.21
2023-09-08T14:20:53.325Z,35.06
2023-09-08T14:22:15.308Z,36.50
2023-09-08T14:23:39.915Z,37.48
2023-09-08T14:25:01.905Z,36.77
2023-09-08T14:26:26.930Z,35.25
2023-09-08T14:27:49.417Z,36.73
2023-09-08T14:29:12.641Z,35.89
2023-09-08T14:30:35.540Z,34.60
2023-09-08T14:31:58.890Z,34.12
2023-09-08T14:33:21.046Z,35.54
2023-09-08T14:34:44.087Z,35.38
2023-09-08T14:36:06.466Z,35.71
2023-09-08T14:37:29.507Z,35.10
2023-09-08T14:38:53.437Z,35.01
2023-09-08T14:40:16.683Z,35.35
2023-09-08T14:41:38.919Z,35.72
2023-09-08T14:43:01.876Z,36.32
2023-09-08T14:44:24.163Z,36.25
2023-09-08T14:45:47.622Z,35.27
2023-09-08T14:47:10.055Z,34.23
2023-09-08T14:48:33.258Z,35.01
2023-09-08T14:49:57.787Z,36.32
2023-09-08T14:51:20.177Z,35.31
2023-09-08T14:52:44.125Z,34.49
2023-09-08T14:54:07.585Z,35.40
2023-09-08T14:55:32.349Z,35.44
2023-09-08T14:56:54.930Z,35.38
2023-09-08T14:58:18.318Z,35.14
2023-09-08T14:59:42.677Z,34.47
2023-09-08T15:01:09.605Z,34.04
2023-09-08T15:02:32.189Z,33.78
2023-09-08T15:03:56.332Z,33.59
2023-09-08T15:05:18.600Z,33.14
2023-09-08T15:06:42.362Z,32.88
2023-09-08T15:08:11.036Z,33.06
2023-09-08T15:09:35.493Z,33.28
2023-09-08T15:10:57.508Z,35.18
2023-09-08T15:12:23.834Z,38.20
2023-09-08T15:13:45.936Z,39.17
2023-09-08T15:15:10.259Z,38.55
2023-09-08T15:16:35.214Z,38.09
2023-09-08T15:17:58.652Z,39.04
2023-09-08T15:19:20.816Z,40.01
2023-09-08T15:20:52.088Z,40.64
2023-09-08T15:22:14.420Z,39.97
2023-09-08T15:23:37.704Z,41.68
2023-09-08T15:25:02.661Z,41.46
2023-09-08T15:26:26.203Z,40.75
2023-09-08T15:27:51.307Z,40.79
2023-09-08T15:29:14.777Z,41.10
2023-09-08T15:30:39.882Z,40.90
2023-09-08T15:32:02.754Z,41.20
2023-09-08T15:33:26.204Z,41.15
2023-09-08T15:34:55.097Z,40.85
2023-09-08T15:36:18.228Z,41.18
2023-09-08T15:37:44.700Z,41.31
2023-09-08T15:39:08.151Z,41.16
2023-09-08T15:40:34.112Z,42.38
2023-09-08T15:41:57.172Z,42.89
2023-09-08T15:43:21.958Z,42.26
2023-09-08T15:44:46.828Z,42.45
2023-09-08T15:46:09.608Z,42.53
2023-09-08T15:47:33.206Z,42.42
2023-09-08T15:48:57.625Z,43.17
2023-09-08T15:50:27.497Z,43.78
2023-09-08T15:51:54.214Z,43.70
2023-09-08T15:53:24.048Z,43.63
2023-09-08T15:54:47.397Z,43.64
2023-09-08T15:56:11.100Z,43.65
2023-09-08T15:57:34.238Z,44.30
2023-09-08T15:58:58.627Z,44.33
2023-09-08T16:00:21.957Z,43.91
2023-09-08T16:01:44.884Z,42.50
2023-09-08T16:03:08.751Z,44.08
2023-09-08T16:04:34.119Z,44.55
2023-09-08T16:06:10.632Z,46.04
2023-09-08T16:07:35.514Z,46.22
2023-09-08T16:08:59.643Z,46.15
2023-09-08T16:10:24.569Z,45.94
2023-09-08T16:11:49.467Z,45.28
2023-09-08T16:13:12.070Z,45.79
2023-09-08T16:14:36.432Z,46.62
2023-09-08T16:15:58.990Z,45.90
2023-09-08T16:17:22.507Z,44.08
2023-09-08T16:18:44.808Z,45.14
2023-09-08T16:20:15.299Z,45.29
2023-09-08T16:21:37.468Z,45.68
2023-09-08T16:23:00.684Z,44.93
2023-09-08T16:24:24.039Z,44.71
2023-09-08T16:25:46.367Z,46.56
2023-09-08T16:27:11.081Z,45.89
2023-09-08T16:28:33.621Z,45.98
2023-09-08T16:29:57.134Z,46.58
2023-09-08T16:31:19.270Z,46.82
2023-09-08T16:32:42.628Z,49.50
2023-09-08T16:34:04.931Z,49.99
2023-09-08T16:35:28.271Z,50.32
2023-09-08T16:36:50.311Z,50.55
2023-09-08T16:38:14.041Z,51.71
2023-09-08T16:39:36.187Z,49.58
2023-09-08T16:41:01.904Z,52.60
2023-09-08T16:42:25.841Z,54.91
2023-09-08T16:43:52.231Z,53.32
2023-09-08T16:45:16.711Z,51.21
2023-09-08T16:46:39.694Z,51.59
2023-09-08T16:48:01.937Z,51.28
2023-09-08T16:49:25.862Z,53.84
2023-09-08T16:50:48.043Z,54.89
2023-09-08T16:52:11.070Z,53.80
2023-09-08T16:53:33.118Z,54.88
2023-09-08T16:54:56.270Z,55.38
2023-09-08T16:56:22.707Z,55.69
2023-09-08T16:57:46.291Z,54.62
2023-09-08T16:59:09.391Z,56.65
2023-09-08T17:00:31.349Z,57.82
2023-09-08T17:01:54.601Z,58.07
2023-09-08T17:03:16.758Z,57.76
2023-09-08T17:04:44.869Z,57.39
2023-09-08T17:06:07.192Z,58.80
2023-09-08T17:07:30.460Z,59.96
2023-09-08T17:08:53.538Z,60.26
2023-09-08T17:10:15.758Z,60.82
2023-09-08T17:11:41.185Z,61.67
2023-09-08T17:13:05.064Z,61.69
2023-09-08T17:14:28.526Z,62.32
2023-09-08T17:15:50.758Z,62.79
2023-09-08T17:17:14.054Z,63.63
2023-09-08T17:18:36.238Z,64.81
2023-09-08T17:20:09.094Z,65.04
2023-09-08T17:21:31.239Z,65.39
2023-09-08T17:22:54.788Z,65.11
2023-09-08T17:24:17.338Z,66.79
2023-09-08T17:25:40.939Z,67.04
2023-09-08T17:27:03.101Z,68.32
2023-09-08T17:28:31.888Z,67.56
2023-09-08T17:29:54.863Z,68.67
2023-09-08T17:31:18.209Z,68.92
2023-09-08T17:32:40.465Z,70.17
2023-09-08T17:34:03.839Z,71.01
2023-09-08T17:35:25.977Z,71.10
2023-09-08T17:36:49.477Z,71.80
2023-09-08T17:38:11.762Z,71.97
2023-09-08T17:39:35.573Z,72.23
2023-09-08T17:41:01.200Z,72.23
2023-09-08T17:42:24.553Z,71.80
2023-09-08T17:43:51.722Z,71.22
2023-09-08T17:45:13.779Z,70.55
2023-09-08T17:46:37.277Z,69.15
2023-09-08T17:48:01.675Z,68.60
2023-09-08T17:49:24.871Z,68.67
2023-09-08T17:50:47.391Z,67.63
2023-09-08T17:52:11.140Z,68.49
2023-09-08T17:53:37.165Z,70.20
2023-09-08T17:55:02.420Z,73.35
2023-09-08T17:56:25.015Z,73.73
2023-09-08T17:57:49.464Z,74.43
2023-09-08T17:59:13.389Z,73.76
2023-09-08T18:00:36.527Z,73.03
2023-09-08T18:01:58.747Z,74.38
2023-09-08T18:03:22.896Z,75.26
2023-09-08T18:04:45.356Z,76.01
2023-09-08T18:06:10.630Z,75.28
2023-09-08T18:07:33.159Z,74.97
2023-09-08T18:08:58.884Z,73.58
2023-09-08T18:10:23.665Z,74.65
2023-09-08T18:11:49.426Z,74.06
2023-09-08T18:13:11.860Z,73.06
2023-09-08T18:14:38.716Z,72.92
2023-09-08T18:16:02.079Z,73.21
2023-09-08T18:17:25.171Z,74.99
2023-09-08T18:18:48.633Z,75.49
2023-09-08T18:20:15.304Z,75.24
2023-09-08T18:21:37.730Z,75.33
2023-09-08T18:23:01.850Z,76.04
2023-09-08T18:24:23.914Z,78.08
2023-09-08T18:25:46.888Z,79.14
2023-09-08T18:27:09.216Z,80.14
2023-09-08T18:28:32.187Z,80.75
2023-09-08T18:29:56.955Z,81.94
2023-09-08T18:31:20.207Z,81.42
2023-09-08T18:32:44.581Z,80.41
2023-09-08T18:34:07.808Z,79.26
2023-09-08T18:35:33.211Z,79.24
2023-09-08T18:36:56.343Z,77.37
2023-09-08T18:38:18.513Z,76.80
2023-09-08T18:39:42.096Z,75.93
2023-09-08T18:41:04.095Z,75.77
2023-09-08T18:42:28.508Z,75.48
2023-09-08T18:43:50.872Z,75.14
2023-09-08T18:45:18.893Z,74.91
2023-09-08T18:46:41.602Z,75.40
2023-09-08T18:48:05.078Z,77.11
2023-09-08T18:49:27.102Z,78.32
2023-09-08T18:50:57.855Z,79.07
2023-09-08T18:52:20.751Z,79.86
2023-09-08T18:53:44.516Z,79.28
2023-09-08T18:55:07.735Z,79.93
2023-09-08T18:56:32.487Z,80.13
2023-09-08T18:57:54.797Z,81.83
2023-09-08T18:59:19.683Z,81.61
2023-09-08T19:00:51.901Z,80.30
2023-09-08T19:02:15.979Z,78.55
2023-09-08T19:03:38.587Z,77.11
2023-09-08T19:05:03.271Z,76.98
2023-09-08T19:06:28.050Z,76.41
2023-09-08T19:07:51.796Z,75.87
2023-09-08T19:09:15.116Z,75.51
2023-09-08T19:10:38.900Z,75.30
2023-09-08T19:12:04.393Z,74.98
2023-09-08T19:13:28.848Z,74.68
2023-09-08T19:14:55.642Z,74.70
2023-09-08T19:16:19.971Z,74.54
2023-09-08T19:17:43.387Z,73.74
2023-09-08T19:19:05.621Z,73.09
2023-09-08T19:20:31.950Z,73.69
2023-09-08T19:21:54.021Z,74.29
2023-09-08T19:23:19.481Z,75.02
2023-09-08T19:24:45.550Z,76.56
2023-09-08T19:26:10.553Z,76.91